createdAt,value
2022-08-09T00:00:23.143Z,102261.09
2022-08-09T00:02:51.566Z,102249.34
2022-08-09T00:06:19.301Z,102234.94
2022-08-09T00:08:13.029Z,102246.78
2022-08-09T00:10:58.711Z,102271.38
2022-08-09T00:13:26.621Z,102275.03
2022-08-09T00:15:59.970Z,102289.78
2022-08-09T00:18:34.813Z,102280.94
2022-08-09T00:21:04.920Z,102280.78
2022-08-09T00:23:55.606Z,102315.81
2022-08-09T00:26:32.562Z,102351.09
2022-08-09T00:29:01.502Z,102365.63
2022-08-09T00:32:00.055Z,102372.91
2022-08-09T00:34:19.422Z,102393.13
2022-08-09T00:36:47.683Z,102395.44
2022-08-09T00:40:12.431Z,102396.09
2022-08-09T00:44:14.160Z,102365.47
2022-08-09T00:44:53.695Z,102377.56
2022-08-09T00:47:21.785Z,102339.00
2022-08-09T00:49:54.951Z,102348.72
2022-08-09T00:52:30.514Z,102337.75
2022-08-09T00:55:01.427Z,102329.31
2022-08-09T00:57:33.719Z,102306.09
2022-08-09T01:00:05.450Z,102310.19
2022-08-09T01:02:52.065Z,102342.41
2022-08-09T01:05:50.663Z,102339.31
2022-08-09T01:08:26.784Z,102311.31
2022-08-09T01:11:09.093Z,102351.69
2022-08-09T01:13:59.086Z,102398.28
2022-08-09T01:16:33.462Z,102433.91
2022-08-09T01:19:17.218Z,102428.41
2022-08-09T01:22:16.447Z,102415.19
2022-08-09T01:24:56.755Z,102369.00
2022-08-09T01:27:27.660Z,102344.91
2022-08-09T01:30:01.084Z,102336.47
2022-08-09T01:32:34.630Z,102310.91
2022-08-09T01:35:18.283Z,102293.03
2022-08-09T01:38:08.129Z,102293.19
2022-08-09T01:40:42.285Z,102310.75
2022-08-09T01:43:12.969Z,102315.31
2022-08-09T01:45:46.469Z,102328.16
2022-08-09T01:48:17.404Z,102305.53
2022-08-09T01:50:55.136Z,102314.97
2022-08-09T01:53:29.215Z,102345.69
2022-08-09T01:56:10.741Z,102386.00
2022-08-09T01:58:41.614Z,102416.63
2022-08-09T02:01:11.726Z,102417.66
2022-08-09T02:03:48.341Z,102357.16
2022-08-09T02:06:39.895Z,102299.78
2022-08-09T02:09:15.556Z,102308.34
2022-08-09T02:11:45.131Z,102301.44
2022-08-09T02:14:25.579Z,102293.44
2022-08-09T02:17:14.663Z,102291.00
2022-08-09T02:19:45.789Z,102317.09
2022-08-09T02:22:27.467Z,102340.44
2022-08-09T02:25:06.811Z,102337.91
2022-08-09T02:27:43.457Z,102325.88
2022-08-09T02:30:30.462Z,102334.25
2022-08-09T02:33:01.710Z,102315.56
2022-08-09T02:36:01.986Z,102307.22
2022-08-09T02:38:28.721Z,102334.22
2022-08-09T02:41:00.241Z,102363.66
2022-08-09T02:43:47.743Z,102391.56
2022-08-09T02:46:23.957Z,102445.44
2022-08-09T02:48:53.156Z,102458.63
2022-08-09T02:51:24.272Z,102420.88
2022-08-09T02:54:00.829Z,102435.16
2022-08-09T02:56:31.778Z,102442.59
2022-08-09T02:59:01.873Z,102440.88
2022-08-09T03:01:58.557Z,102442.31
2022-08-09T03:04:28.914Z,102435.56
2022-08-09T03:07:12.213Z,102471.66
2022-08-09T03:09:43.311Z,102508.81
2022-08-09T03:12:22.966Z,102519.97
2022-08-09T03:14:51.821Z,102514.41
2022-08-09T03:17:27.155Z,102484.34
2022-08-09T03:20:03.276Z,102471.47
2022-08-09T03:22:42.058Z,102427.44
2022-08-09T03:25:21.604Z,102412.03
2022-08-09T03:27:57.862Z,102407.31
2022-08-09T03:30:30.069Z,102413.81
2022-08-09T03:33:05.810Z,102420.53
2022-08-09T03:36:13.804Z,102423.56
2022-08-09T03:38:30.354Z,102415.25
2022-08-09T03:40:58.944Z,102400.13
2022-08-09T03:43:31.653Z,102413.38
2022-08-09T03:46:04.683Z,102460.13
2022-08-09T03:48:54.876Z,102483.31
2022-08-09T03:51:55.696Z,102528.91
2022-08-09T03:54:12.077Z,102570.19
2022-08-09T03:56:41.729Z,102554.41
2022-08-09T03:59:13.735Z,102539.56
2022-08-09T04:01:45.833Z,102525.78
2022-08-09T04:04:16.218Z,102490.34
2022-08-09T04:06:48.733Z,102462.47
2022-08-09T04:09:44.479Z,102447.72
2022-08-09T04:12:31.089Z,102440.81
2022-08-09T04:15:01.750Z,102470.81
2022-08-09T04:17:39.417Z,102475.81
2022-08-09T04:20:13.983Z,102509.28
2022-08-09T04:22:44.186Z,102506.00
2022-08-09T04:25:13.489Z,102472.56
2022-08-09T04:27:42.626Z,102432.84
2022-08-09T04:30:20.851Z,102399.88
2022-08-09T04:32:51.972Z,102406.06
2022-08-09T04:35:21.747Z,102399.75
2022-08-09T04:37:50.206Z,102387.81
2022-08-09T04:40:28.478Z,102366.31
2022-08-09T04:43:04.237Z,102390.69
2022-08-09T04:45:35.983Z,102413.59
2022-08-09T04:48:21.175Z,102401.34
2022-08-09T04:50:53.142Z,102394.25
2022-08-09T04:53:20.956Z,102391.28
2022-08-09T04:55:57.656Z,102373.19
2022-08-09T04:58:27.127Z,102356.59
2022-08-09T05:00:55.315Z,102336.03
2022-08-09T05:03:40.434Z,102314.41
2022-08-09T05:06:21.998Z,102327.75
2022-08-09T05:09:00.652Z,102325.63
2022-08-09T05:11:32.205Z,102324.19
2022-08-09T05:14:05.710Z,102312.31
2022-08-09T05:16:58.160Z,102302.72
2022-08-09T05:19:25.679Z,102297.16
2022-08-09T05:21:56.551Z,102288.78
2022-08-09T05:24:24.701Z,102292.72
2022-08-09T05:26:52.599Z,102298.13
2022-08-09T05:29:22.178Z,102309.88
2022-08-09T05:31:59.105Z,102307.16
2022-08-09T05:34:30.856Z,102318.16
2022-08-09T05:37:06.301Z,102323.88
2022-08-09T05:39:36.047Z,102306.09
2022-08-09T05:42:10.258Z,102294.09
2022-08-09T05:44:47.753Z,102302.59
2022-08-09T05:47:19.159Z,102284.19
2022-08-09T05:50:31.249Z,102288.41
2022-08-09T05:52:36.491Z,102286.47
2022-08-09T05:55:08.553Z,102302.63
2022-08-09T05:57:55.548Z,102313.81
2022-08-09T06:00:24.722Z,102316.94
2022-08-09T06:02:54.117Z,102322.31
2022-08-09T06:05:30.806Z,102332.88
2022-08-09T06:08:19.410Z,102352.25
2022-08-09T06:10:52.202Z,102362.56
2022-08-09T06:13:20.837Z,102361.91
2022-08-09T06:15:51.389Z,102372.00
2022-08-09T06:18:20.451Z,102386.63
2022-08-09T06:20:56.461Z,102396.09
2022-08-09T06:23:57.410Z,102385.84
2022-08-09T06:26:20.292Z,102368.03
2022-08-09T06:28:49.673Z,102359.75
2022-08-09T06:31:17.480Z,102355.25
2022-08-09T06:33:58.672Z,102358.81
2022-08-09T06:36:26.997Z,102369.91
2022-08-09T06:38:56.918Z,102375.78
2022-08-09T06:42:08.224Z,102369.94
2022-08-09T06:44:14.421Z,102400.03
2022-08-09T06:46:48.172Z,102444.47
2022-08-09T06:49:29.213Z,102461.28
2022-08-09T06:52:08.530Z,102442.63
2022-08-09T06:54:37.745Z,102459.25
2022-08-09T06:57:06.871Z,102480.78
2022-08-09T07:00:57.273Z,102492.78
2022-08-09T07:02:30.813Z,102515.63
2022-08-09T07:05:00.051Z,102547.50
2022-08-09T07:08:00.847Z,102566.31
2022-08-09T07:10:24.025Z,102565.13
2022-08-09T07:12:58.245Z,102555.38
2022-08-09T07:16:34.791Z,102542.38
2022-08-09T07:18:14.994Z,102563.22
2022-08-09T07:20:43.458Z,102571.31
2022-08-09T07:23:18.598Z,102564.72
2022-08-09T07:25:52.034Z,102580.22
2022-08-09T07:28:26.203Z,102588.50
2022-08-09T07:30:56.478Z,102586.69
2022-08-09T07:33:24.389Z,102598.81
2022-08-09T07:35:54.182Z,102602.97
2022-08-09T07:38:23.665Z,102607.44
2022-08-09T07:41:10.986Z,102618.78
2022-08-09T07:43:49.540Z,102628.97
2022-08-09T07:46:19.330Z,102625.06
2022-08-09T07:48:52.740Z,102637.25
2022-08-09T07:52:05.685Z,102657.16
2022-08-09T07:54:15.196Z,102668.50
2022-08-09T07:56:49.677Z,102660.69
2022-08-09T07:59:34.233Z,102663.59
2022-08-09T08:02:06.755Z,102685.75
2022-08-09T08:04:37.835Z,102675.38
2022-08-09T08:07:15.199Z,102668.09
2022-08-09T08:10:08.720Z,102701.91
2022-08-09T08:12:45.103Z,102683.91
2022-08-09T08:15:16.856Z,102698.13
2022-08-09T08:17:53.763Z,102703.56
2022-08-09T08:20:29.298Z,102714.66
2022-08-09T08:23:06.415Z,102701.75
2022-08-09T08:25:48.382Z,102692.63
2022-08-09T08:28:26.236Z,102692.84
2022-08-09T08:31:04.682Z,102671.31
2022-08-09T08:33:53.773Z,102671.91
2022-08-09T08:36:28.713Z,102676.56
2022-08-09T08:38:57.255Z,102686.59
2022-08-09T08:41:41.806Z,102667.31
2022-08-09T08:44:15.589Z,102652.72
2022-08-09T08:47:02.080Z,102665.34
2022-08-09T08:49:46.284Z,102673.16
2022-08-09T08:52:48.519Z,102687.59
2022-08-09T08:55:06.341Z,102684.78
2022-08-09T08:57:34.984Z,102687.94
2022-08-09T09:00:12.751Z,102694.38
2022-08-09T09:02:52.250Z,102716.53
2022-08-09T09:05:33.066Z,102719.81
2022-08-09T09:08:29.372Z,102697.38
2022-08-09T09:10:59.165Z,102701.09
2022-08-09T09:13:41.945Z,102695.81
2022-08-09T09:16:17.205Z,102699.66
2022-08-09T09:19:15.619Z,102709.06
2022-08-09T09:22:00.706Z,102714.53
2022-08-09T09:24:33.192Z,102726.50
2022-08-09T09:27:03.979Z,102726.91
2022-08-09T09:29:58.049Z,102721.56
2022-08-09T09:32:32.227Z,102722.00
2022-08-09T09:35:07.687Z,102736.66
2022-08-09T09:37:40.484Z,102731.56
2022-08-09T09:40:11.515Z,102740.13
2022-08-09T09:42:39.729Z,102745.06
2022-08-09T09:45:14.440Z,102743.16
2022-08-09T09:47:58.590Z,102759.84
2022-08-09T09:50:49.409Z,102753.47
2022-08-09T09:53:44.216Z,102749.84
2022-08-09T09:56:30.875Z,102757.09
2022-08-09T09:58:57.757Z,102755.56
2022-08-09T10:01:30.992Z,102744.53
2022-08-09T10:04:16.198Z,102771.97
2022-08-09T10:06:52.159Z,102788.91
2022-08-09T10:09:23.885Z,102779.69
2022-08-09T10:12:11.984Z,102788.41
2022-08-09T10:14:48.251Z,102773.91
2022-08-09T10:17:50.681Z,102772.38
2022-08-09T10:20:27.557Z,102773.84
2022-08-09T10:23:17.126Z,102781.34
2022-08-09T10:26:04.412Z,102773.31
2022-08-09T10:28:36.027Z,102783.41
2022-08-09T10:32:27.760Z,102770.19
2022-08-09T10:34:08.510Z,102775.84
2022-08-09T10:36:42.263Z,102782.84
2022-08-09T10:39:15.825Z,102786.03
2022-08-09T10:41:46.221Z,102779.72
2022-08-09T10:44:19.473Z,102778.31
2022-08-09T10:48:25.946Z,102775.50
2022-08-09T10:50:32.868Z,102778.53
2022-08-09T10:53:21.267Z,102782.75
2022-08-09T10:55:57.867Z,102779.75
2022-08-09T10:58:37.319Z,102783.22
2022-08-09T11:03:03.252Z,102778.69
2022-08-09T11:04:19.873Z,102783.94
2022-08-09T11:07:56.678Z,102778.91
2022-08-09T11:10:16.296Z,102778.22
2022-08-09T11:13:49.497Z,102778.66
2022-08-09T11:16:35.583Z,102781.47
2022-08-09T11:19:07.925Z,102780.53
2022-08-09T11:22:04.929Z,102780.31
2022-08-09T11:25:04.523Z,102780.97
2022-08-09T11:28:02.837Z,102781.78
2022-08-09T11:30:34.656Z,102780.97
2022-08-09T11:33:07.403Z,102788.13
2022-08-09T11:35:49.177Z,102779.69
2022-08-09T11:38:22.388Z,102791.34
2022-08-09T11:40:57.204Z,102781.38
2022-08-09T11:43:40.654Z,102779.53
2022-08-09T11:46:09.435Z,102781.00
2022-08-09T11:48:50.149Z,102777.88
2022-08-09T11:52:53.929Z,102766.50
2022-08-09T11:54:27.472Z,102776.75
2022-08-09T11:58:00.166Z,102768.59
2022-08-09T12:00:27.312Z,102767.16
2022-08-09T12:02:56.083Z,102761.09
2022-08-09T12:05:37.703Z,102764.22
2022-08-09T12:08:12.399Z,102767.78
2022-08-09T12:10:49.779Z,102766.00
2022-08-09T12:14:10.614Z,102766.09
2022-08-09T12:16:29.221Z,102763.81
2022-08-09T12:19:06.550Z,102768.06
2022-08-09T12:21:38.521Z,102765.75
2022-08-09T12:24:09.867Z,102760.84
2022-08-09T12:26:40.408Z,102771.63
2022-08-09T12:29:30.055Z,102763.75
2022-08-09T12:32:03.579Z,102761.25
2022-08-09T12:34:36.005Z,102763.56
2022-08-09T12:37:22.288Z,102764.44
2022-08-09T12:40:06.978Z,102767.72
2022-08-09T12:42:35.877Z,102763.78
2022-08-09T12:45:32.089Z,102761.97
2022-08-09T12:47:54.724Z,102747.69
2022-08-09T12:50:23.528Z,102747.25
2022-08-09T12:53:09.400Z,102756.09
2022-08-09T12:56:16.166Z,102747.50
2022-08-09T12:58:30.283Z,102751.22
2022-08-09T13:00:59.583Z,102745.22
2022-08-09T13:03:57.125Z,102749.13
2022-08-09T13:06:34.969Z,102753.16
2022-08-09T13:09:07.848Z,102746.94
2022-08-09T13:11:39.655Z,102752.44
2022-08-09T13:14:40.563Z,102750.28
2022-08-09T13:17:02.078Z,102744.78
2022-08-09T13:20:09.067Z,102741.94
2022-08-09T13:22:35.262Z,102743.06
2022-08-09T13:25:14.068Z,102750.81
2022-08-09T13:27:48.217Z,102748.72
2022-08-09T13:31:11.024Z,102741.56
2022-08-09T13:33:16.894Z,102729.84
2022-08-09T13:36:24.827Z,102743.72
2022-08-09T13:38:56.595Z,102738.47
2022-08-09T13:41:58.144Z,102729.66
2022-08-09T13:44:16.933Z,102734.09
2022-08-09T13:47:28.789Z,102737.19
2022-08-09T13:49:39.863Z,102739.03
2022-08-09T13:52:23.241Z,102743.72
2022-08-09T13:55:00.197Z,102743.22
2022-08-09T13:57:36.399Z,102736.97
2022-08-09T14:00:12.526Z,102740.66
2022-08-09T14:02:42.953Z,102728.28
2022-08-09T14:05:59.082Z,102748.41
2022-08-09T14:08:17.813Z,102746.88
2022-08-09T14:10:52.012Z,102751.25
2022-08-09T14:14:14.657Z,102748.00
2022-08-09T14:16:14.442Z,102749.13
2022-08-09T14:18:46.019Z,102743.25
2022-08-09T14:21:22.312Z,102751.28
2022-08-09T14:23:55.662Z,102742.66
2022-08-09T14:26:32.936Z,102736.16
2022-08-09T14:29:07.893Z,102732.88
2022-08-09T14:31:55.085Z,102740.53
2022-08-09T14:34:31.243Z,102737.47
2022-08-09T14:37:02.756Z,102733.63
2022-08-09T14:39:40.506Z,102738.91
2022-08-09T14:42:28.729Z,102741.41
2022-08-09T14:46:59.034Z,102738.78
2022-08-09T14:47:57.848Z,102741.00
2022-08-09T14:50:29.154Z,102738.88
2022-08-09T14:52:57.664Z,102737.63
2022-08-09T14:55:25.695Z,102741.94
2022-08-09T14:58:00.779Z,102742.78
2022-08-09T15:00:33.166Z,102737.13
2022-08-09T15:03:01.541Z,102737.91
2022-08-09T15:05:29.757Z,102744.31
2022-08-09T15:07:58.337Z,102738.97
2022-08-09T15:10:26.919Z,102746.59
2022-08-09T15:12:55.517Z,102745.16
2022-08-09T15:15:24.098Z,102746.84
2022-08-09T15:17:53.535Z,102749.50
2022-08-09T15:21:56.706Z,102750.78
2022-08-09T15:24:01.407Z,102746.22
2022-08-09T15:25:58.807Z,102752.66
2022-08-09T15:28:28.482Z,102764.84
2022-08-09T15:31:09.820Z,102765.22
2022-08-09T15:34:16.267Z,102756.44
2022-08-09T15:36:30.012Z,102752.66
2022-08-09T15:38:58.873Z,102753.31
2022-08-09T15:41:31.672Z,102754.66
2022-08-09T15:44:01.750Z,102752.63
2022-08-09T15:46:33.744Z,102746.41
2022-08-09T15:49:21.948Z,102752.88
2022-08-09T15:52:04.876Z,102744.56
2022-08-09T15:54:44.745Z,102747.34
2022-08-09T15:57:19.155Z,102746.38
2022-08-09T16:00:02.954Z,102741.75
2022-08-09T16:02:30.684Z,102744.72
2022-08-09T16:05:02.479Z,102743.31
2022-08-09T16:07:39.238Z,102746.22
2022-08-09T16:10:11.379Z,102736.22
2022-08-09T16:12:50.609Z,102734.94
2022-08-09T16:16:11.421Z,102733.66
2022-08-09T16:18:10.209Z,102724.22
2022-08-09T16:20:41.635Z,102724.72
2022-08-09T16:23:11.488Z,102718.56
2022-08-09T16:25:41.008Z,102721.88
2022-08-09T16:28:12.207Z,102721.03
2022-08-09T16:30:44.700Z,102716.06
2022-08-09T16:33:15.822Z,102721.50
2022-08-09T16:35:56.810Z,102726.72
2022-08-09T16:38:27.897Z,102723.53
2022-08-09T16:40:57.862Z,102717.19
2022-08-09T16:43:26.604Z,102706.47
2022-08-09T16:45:54.689Z,102721.56
2022-08-09T16:48:40.748Z,102721.66
2022-08-09T16:51:13.844Z,102715.97
2022-08-09T16:54:02.383Z,102708.81
2022-08-09T16:56:32.896Z,102706.81
2022-08-09T16:59:06.869Z,102706.59
2022-08-09T17:01:38.861Z,102710.78
2022-08-09T17:04:06.881Z,102703.16
2022-08-09T17:06:47.496Z,102699.81
2022-08-09T17:09:43.861Z,102707.97
2022-08-09T17:12:11.901Z,102712.31
2022-08-09T17:14:39.742Z,102714.25
2022-08-09T17:17:26.422Z,102700.88
2022-08-09T17:20:28.673Z,102711.59
2022-08-09T17:22:49.748Z,102711.94
2022-08-09T17:25:20.420Z,102700.69
2022-08-09T17:27:54.659Z,102707.88
2022-08-09T17:30:25.903Z,102694.41
2022-08-09T17:32:57.452Z,102705.06
2022-08-09T17:35:31.155Z,102712.38
2022-08-09T17:38:11.869Z,102711.31
2022-08-09T17:40:49.531Z,102709.88
2022-08-09T17:43:34.270Z,102714.06
2022-08-09T17:46:06.073Z,102704.38
2022-08-09T17:48:39.512Z,102712.38
2022-08-09T17:51:18.691Z,102717.06
2022-08-09T17:53:53.565Z,102709.94
2022-08-09T17:56:27.907Z,102713.44
2022-08-09T17:59:03.046Z,102700.38
2022-08-09T18:01:40.905Z,102680.16
2022-08-09T18:04:20.583Z,102667.78
2022-08-09T18:06:54.190Z,102674.13
2022-08-09T18:09:40.332Z,102637.94
2022-08-09T18:12:17.424Z,102634.28
2022-08-09T18:14:49.767Z,102619.25
2022-08-09T18:17:27.590Z,102595.38
2022-08-09T18:20:54.437Z,102623.34
2022-08-09T18:22:59.883Z,102589.97
2022-08-09T18:25:52.811Z,102594.75
2022-08-09T18:30:41.353Z,102588.69
2022-08-09T18:31:11.898Z,102583.72
2022-08-09T18:33:45.204Z,102559.75
2022-08-09T18:36:25.726Z,102532.31
2022-08-09T18:39:02.562Z,102521.22
2022-08-09T18:41:34.709Z,102511.34
2022-08-09T18:44:12.497Z,102505.72
2022-08-09T18:46:47.375Z,102475.06
2022-08-09T18:49:25.994Z,102478.06
2022-08-09T18:51:55.465Z,102479.41
2022-08-09T18:54:28.500Z,102448.56
2022-08-09T18:57:06.214Z,102417.16
2022-08-09T18:59:37.259Z,102408.16
2022-08-09T19:02:17.336Z,102387.94
2022-08-09T19:04:47.847Z,102377.81
2022-08-09T19:07:33.316Z,102362.09
2022-08-09T19:10:15.231Z,102368.50
2022-08-09T19:12:53.186Z,102374.22
2022-08-09T19:15:27.814Z,102373.72
2022-08-09T19:17:58.335Z,102374.56
2022-08-09T19:20:34.208Z,102382.25
2022-08-09T19:23:02.522Z,102382.56
2022-08-09T19:26:01.554Z,102394.19
2022-08-09T19:28:22.486Z,102394.34
2022-08-09T19:30:56.782Z,102420.78
2022-08-09T19:33:25.325Z,102413.31
2022-08-09T19:35:56.820Z,102400.94
2022-08-09T19:38:26.751Z,102399.47
2022-08-09T19:40:54.766Z,102380.94
2022-08-09T19:44:01.952Z,102370.75
2022-08-09T19:46:14.865Z,102381.53
2022-08-09T19:49:00.566Z,102375.69
2022-08-09T19:51:30.858Z,102389.56
2022-08-09T19:53:59.214Z,102389.34
2022-08-09T19:56:29.414Z,102395.22
2022-08-09T19:59:18.163Z,102384.84
2022-08-09T20:01:53.079Z,102372.41
2022-08-09T20:04:37.457Z,102380.97
2022-08-09T20:07:12.380Z,102395.59
2022-08-09T20:09:48.982Z,102405.25
2022-08-09T20:12:30.217Z,102387.00
2022-08-09T20:16:31.886Z,102403.28
2022-08-09T20:17:56.404Z,102397.91
2022-08-09T20:20:24.978Z,102370.13
2022-08-09T20:22:56.399Z,102348.09
2022-08-09T20:25:25.327Z,102352.63
2022-08-09T20:27:53.313Z,102344.69
2022-08-09T20:30:25.182Z,102329.09
2022-08-09T20:32:53.627Z,102342.88
2022-08-09T20:35:21.834Z,102353.44
2022-08-09T20:38:21.566Z,102350.06
2022-08-09T20:40:37.595Z,102346.72
2022-08-09T20:43:18.835Z,102362.72
2022-08-09T20:46:00.704Z,102367.25
2022-08-09T20:48:42.625Z,102373.84
2022-08-09T20:51:19.472Z,102372.44
2022-08-09T20:53:48.660Z,102369.91
2022-08-09T20:56:20.919Z,102357.44
2022-08-09T20:58:50.538Z,102355.16
2022-08-09T21:01:35.287Z,102344.63
2022-08-09T21:05:49.038Z,102352.50
2022-08-09T21:06:59.661Z,102353.69
2022-08-09T21:09:45.220Z,102351.13
2022-08-09T21:14:49.091Z,102348.31
2022-08-09T21:18:22.356Z,102345.41
2022-08-09T21:20:25.475Z,102350.16
2022-08-09T21:22:55.100Z,102350.44
2022-08-09T21:25:43.744Z,102352.44
2022-08-09T21:28:15.845Z,102356.47
2022-08-09T21:30:44.418Z,102365.16
2022-08-09T21:33:16.067Z,102378.53
2022-08-09T21:35:51.183Z,102379.06
2022-08-09T21:38:31.455Z,102405.88
2022-08-09T21:41:00.143Z,102408.56
2022-08-09T21:43:56.415Z,102393.28
2022-08-09T21:46:16.357Z,102376.50
2022-08-09T21:48:49.099Z,102371.78
2022-08-09T21:51:24.341Z,102385.69
2022-08-09T21:54:03.892Z,102377.38
2022-08-09T21:56:43.571Z,102383.28
2022-08-09T21:59:19.770Z,102397.50
2022-08-09T22:02:01.321Z,102456.34
2022-08-09T22:04:55.771Z,102500.38
2022-08-09T22:07:34.993Z,102540.16
2022-08-09T22:10:08.534Z,102579.03
2022-08-09T22:12:38.064Z,102576.31
2022-08-09T22:15:16.591Z,102564.78
2022-08-09T22:17:46.317Z,102538.97
2022-08-09T22:20:17.019Z,102506.25
2022-08-09T22:22:50.687Z,102477.91
2022-08-09T22:26:06.899Z,102475.22
2022-08-09T22:28:07.414Z,102463.34
2022-08-09T22:30:36.547Z,102454.97
2022-08-09T22:33:09.633Z,102469.44
2022-08-09T22:36:01.188Z,102477.38
2022-08-09T22:38:27.021Z,102463.91
2022-08-09T22:40:57.786Z,102472.56
2022-08-09T22:44:02.336Z,102461.91
2022-08-09T22:48:16.723Z,102470.84
2022-08-09T22:49:09.687Z,102470.16
2022-08-09T22:51:43.449Z,102461.75
2022-08-09T22:54:21.407Z,102430.53
2022-08-09T22:56:54.693Z,102420.13
2022-08-09T22:59:57.131Z,102425.09
2022-08-09T23:02:14.966Z,102432.78
2022-08-09T23:04:54.266Z,102424.34
2022-08-09T23:08:22.206Z,102412.66
2022-08-09T23:10:30.783Z,102423.47
2022-08-09T23:12:58.721Z,102407.97
2022-08-09T23:15:26.789Z,102420.50
2022-08-09T23:17:54.889Z,102405.59
2022-08-09T23:20:23.311Z,102409.19
2022-08-09T23:22:52.490Z,102425.72
2022-08-09T23:25:20.252Z,102428.03
2022-08-09T23:27:57.465Z,102425.28
2022-08-09T23:30:35.776Z,102455.34
2022-08-09T23:33:03.611Z,102466.03
2022-08-09T23:35:31.393Z,102453.09
2022-08-09T23:38:21.076Z,102455.63
2022-08-09T23:40:51.261Z,102455.50
2022-08-09T23:43:19.164Z,102455.03
2022-08-09T23:45:46.972Z,102448.00
2022-08-09T23:48:14.810Z,102435.34
2022-08-09T23:50:42.611Z,102442.84
2022-08-09T23:53:10.437Z,102429.00
2022-08-09T23:55:47.289Z,102413.84
2022-08-09T23:58:24.289Z,102411.16
